Philadelphia International Airport
KPHL : rendu visible

Aérodrome :











RETROUVEZ-NOUS SUR...

 
LOGIN :

S'inscrire | Disclaimer

   EN    FR    IT 

 









Légende :    VFR   VFR Marginal   IFR   IFR Intensif   IFR Très Intensif
Visi : 
Plafond : 
>= 8 km
>= 3000ft
5 à 8 km
1000 à 3000 ft
1500m à 5 km
500 à 1000 ft
800 à 1500m
200 à 500 ft
< 800m
< 200 ft
Symboles :   Orages  Brouillard  Fortes neiges  Fortes précipitations  Vent > 20 kt






- Altitude de l'aérodrome : 36 ft
- Code IATA : PHL


KPHL - Philadelphia International

DERNIER METAR :
  • 201154Z 34008KT 10SM BKN075 OVC110 06/M01 A2996 RMK AO2 SLP143 T00561011 10067 20056 53015 $

METARs EXPIRÉS :
  • 201054Z 33007KT 10SM BKN075 BKN130 OVC160 06/M01 A2993 RMK AO2 SLP136 T00561011 $
  • 200954Z 33007KT 10SM OVC075 06/M01 A2992 RMK AO2 SLP131 T00561006 $

TAF KPHL
Valide du 20 à 12h jusqu'au 21 à 18h UTC


201120Z 2012/2118 33010KT P6SM OVC080
FM201600 33012G21KT P6SM BKN070
FM210100 32011KT P6SM SCT060



MET'MAP, la Météo Aéronautique d'un coup d'oeil ! - Copyright ORBIFLY Décembre 2007 - Disclaimer

ORBIFLY MET'MAP TEAM :

Programmation & Développement : Alexandra Zaïnal
Conception & Développement : Baudouin d'Aumeries
Co-Programmation & Développement : Marc-Olivier Méhu
Soutien technique & logistique : Manuel Goepfert

Contact : metmap@orbifly.com




SOURCES & CREDITS :

   NOAA       Earth
Advisory